createdAt,value
2019-04-14T00:01:30.544Z,22.47
2019-04-14T00:04:28.996Z,18.47
2019-04-14T00:06:59.290Z,18.43
2019-04-14T00:09:29.462Z,25.97
2019-04-14T00:12:02.084Z,23.20
2019-04-14T00:14:32.053Z,23.17
2019-04-14T00:17:02.153Z,27.47
2019-04-14T00:19:32.698Z,18.33
2019-04-14T00:22:03.506Z,22.17
2019-04-14T00:24:33.743Z,28.30
2019-04-14T00:27:04.242Z,27.00
2019-04-14T00:29:35.089Z,27.83
2019-04-14T00:32:05.453Z,23.20
2019-04-14T00:34:52.945Z,23.43
2019-04-14T00:37:35.943Z,23.27
2019-04-14T00:40:11.287Z,21.43
2019-04-14T00:42:56.451Z,22.47
2019-04-14T00:45:41.624Z,30.67
2019-04-14T00:48:13.145Z,28.97
2019-04-14T00:50:40.895Z,27.57
2019-04-14T00:53:12.104Z,22.97
2019-04-14T00:55:42.607Z,33.03
2019-04-14T00:58:12.799Z,31.33
2019-04-14T01:00:43.196Z,29.67
2019-04-14T01:03:13.457Z,22.57
2019-04-14T01:05:43.718Z,33.40
2019-04-14T01:08:14.174Z,26.77
2019-04-14T01:10:45.349Z,25.43
2019-04-14T01:13:15.815Z,29.00
2019-04-14T01:15:56.818Z,31.93
2019-04-14T01:21:50.307Z,27.83
2019-04-14T01:24:20.718Z,22.97
2019-04-14T01:26:50.748Z,32.60
2019-04-14T01:29:21.020Z,28.03
2019-04-14T01:31:51.525Z,31.73
2019-04-14T01:34:22.274Z,30.73
2019-04-14T01:36:52.371Z,32.07
2019-04-14T01:39:22.534Z,31.13
2019-04-14T01:41:52.709Z,31.13
2019-04-14T01:44:22.654Z,27.70
2019-04-14T01:46:54.164Z,31.43
2019-04-14T01:49:24.745Z,25.83
2019-04-14T01:52:08.178Z,31.60
2019-04-14T01:54:47.251Z,34.90
2019-04-14T01:57:37.642Z,29.33
2019-04-14T02:00:31.571Z,30.53
2019-04-14T02:03:01.944Z,16.53
2019-04-14T02:05:32.139Z,39.70
2019-04-14T02:08:02.462Z,26.40
2019-04-14T02:10:32.669Z,29.03
2019-04-14T02:13:02.866Z,27.50
2019-04-14T02:15:33.073Z,30.10
2019-04-14T02:18:03.566Z,30.00
2019-04-14T02:20:33.936Z,28.77
2019-04-14T02:23:04.378Z,24.03
2019-04-14T02:25:35.926Z,24.77
2019-04-14T02:28:06.933Z,28.17
2019-04-14T02:30:45.743Z,32.73
2019-04-14T02:33:41.395Z,28.07
2019-04-14T02:36:14.228Z,32.97
2019-04-14T02:38:49.015Z,28.90
2019-04-14T02:41:23.481Z,29.63
2019-04-14T02:43:54.565Z,28.37
2019-04-14T02:46:10.035Z,33.77
2019-04-14T02:48:58.753Z,29.90
2019-04-14T02:51:22.372Z,26.00
2019-04-14T02:53:50.136Z,34.67
2019-04-14T02:56:21.790Z,35.00
2019-04-14T02:58:53.811Z,26.20
2019-04-14T03:01:39.464Z,26.90
2019-04-14T03:04:05.917Z,30.77
2019-04-14T03:06:26.110Z,27.20
2019-04-14T03:09:10.835Z,28.97
2019-04-14T03:11:31.195Z,37.27
2019-04-14T03:17:16.199Z,26.33
2019-04-14T03:19:55.993Z,29.97
2019-04-14T03:25:12.550Z,30.93
2019-04-14T03:27:55.109Z,31.70
2019-04-14T03:33:55.614Z,26.97
2019-04-14T03:38:26.315Z,22.83
2019-04-14T03:40:58.551Z,30.50
2019-04-14T03:43:30.982Z,29.47
2019-04-14T03:46:14.875Z,29.43
2019-04-14T03:51:10.717Z,24.63
2019-04-14T03:53:37.729Z,26.43
2019-04-14T03:56:21.688Z,27.33
2019-04-14T03:58:53.221Z,28.00
2019-04-14T04:01:23.772Z,24.03
2019-04-14T04:03:54.289Z,31.07
2019-04-14T04:06:24.656Z,23.07
2019-04-14T04:08:55.248Z,17.30
2019-04-14T04:11:25.875Z,26.33
2019-04-14T04:13:56.367Z,28.83
2019-04-14T04:16:37.396Z,27.97
2019-04-14T04:19:19.756Z,24.67
2019-04-14T04:22:08.539Z,25.20
2019-04-14T04:24:47.564Z,30.70
2019-04-14T04:27:39.737Z,30.07
2019-04-14T04:30:19.031Z,26.00
2019-04-14T04:33:11.186Z,33.13
2019-04-14T04:35:50.118Z,30.80
2019-04-14T04:38:48.774Z,26.40
2019-04-14T04:41:19.202Z,25.00
2019-04-14T04:43:49.775Z,32.67
2019-04-14T04:46:20.417Z,35.60
2019-04-14T04:49:00.923Z,30.30
2019-04-14T04:51:22.475Z,26.90
2019-04-14T04:53:52.834Z,32.13
2019-04-14T04:56:23.226Z,25.60
2019-04-14T04:58:54.520Z,23.63
2019-04-14T05:01:25.931Z,31.40
2019-04-14T05:03:56.533Z,31.53
2019-04-14T05:07:01.699Z,28.67
2019-04-14T05:09:51.299Z,28.13
2019-04-14T05:12:41.888Z,27.53
2019-04-14T05:15:33.947Z,32.17
2019-04-14T05:18:04.974Z,28.07
2019-04-14T05:20:35.781Z,29.60
2019-04-14T05:23:05.943Z,30.50
2019-04-14T05:25:36.565Z,30.87
2019-04-14T05:28:07.148Z,27.30
2019-04-14T05:30:37.317Z,30.30
2019-04-14T05:33:07.532Z,31.37
2019-04-14T05:35:38.067Z,28.03
2019-04-14T05:38:08.525Z,32.97
2019-04-14T05:40:39.024Z,30.07
2019-04-14T05:43:09.078Z,27.87
2019-04-14T05:45:39.528Z,32.70
2019-04-14T05:48:10.070Z,25.97
2019-04-14T05:50:40.117Z,20.63
2019-04-14T05:53:11.037Z,29.57
2019-04-14T05:55:41.658Z,26.37
2019-04-14T05:58:12.202Z,27.27
2019-04-14T06:00:46.375Z,33.57
2019-04-14T06:03:16.772Z,30.33
2019-04-14T06:05:49.369Z,31.97
2019-04-14T06:08:19.108Z,32.43
2019-04-14T06:10:49.112Z,31.73
2019-04-14T06:13:19.000Z,32.20
2019-04-14T06:15:49.140Z,29.17
2019-04-14T06:18:18.954Z,28.10
2019-04-14T06:20:48.718Z,32.90
2019-04-14T06:23:18.876Z,36.23
2019-04-14T06:25:48.812Z,32.40
2019-04-14T06:28:18.777Z,29.90
2019-04-14T06:31:08.953Z,32.17
2019-04-14T06:33:58.410Z,31.90
2019-04-14T06:36:42.686Z,39.70
2019-04-14T06:39:31.560Z,34.13
2019-04-14T06:42:01.500Z,30.27
2019-04-14T06:44:31.426Z,32.77
2019-04-14T06:47:01.302Z,31.93
2019-04-14T06:49:31.119Z,27.97
2019-04-14T06:52:01.112Z,28.33
2019-04-14T06:54:31.060Z,28.97
2019-04-14T06:57:01.053Z,33.23
2019-04-14T06:59:31.031Z,30.47
2019-04-14T07:02:01.812Z,38.37
2019-04-14T07:04:32.103Z,28.27
2019-04-14T07:07:03.126Z,30.77
2019-04-14T07:09:33.094Z,29.17
2019-04-14T07:12:03.335Z,36.03
2019-04-14T07:14:33.170Z,34.10
2019-04-14T07:17:03.054Z,36.27
2019-04-14T07:19:32.913Z,32.90
2019-04-14T07:22:02.863Z,29.90
2019-04-14T07:24:32.653Z,31.33
2019-04-14T07:27:02.450Z,30.90
2019-04-14T07:29:41.799Z,30.53
2019-04-14T07:32:29.390Z,25.77
2019-04-14T07:38:44.535Z,28.50
2019-04-14T07:41:42.605Z,32.13
2019-04-14T07:44:33.998Z,27.47
2019-04-14T07:47:16.675Z,33.50
2019-04-14T07:50:14.492Z,26.30
2019-04-14T07:52:50.067Z,35.07
2019-04-14T07:55:42.048Z,31.70
2019-04-14T07:58:31.010Z,25.93
2019-04-14T08:01:19.917Z,26.60
2019-04-14T08:04:12.296Z,26.43
2019-04-14T08:06:46.843Z,31.27
2019-04-14T08:09:17.233Z,32.60
2019-04-14T08:11:47.634Z,22.47
2019-04-14T08:14:17.400Z,27.63
2019-04-14T08:16:47.221Z,25.23
2019-04-14T08:22:58.070Z,31.50
2019-04-14T08:25:28.093Z,29.47
2019-04-14T08:27:57.888Z,28.40
2019-04-14T08:30:27.906Z,24.97
2019-04-14T08:32:57.718Z,29.20
2019-04-14T08:35:27.575Z,25.83
2019-04-14T08:37:57.547Z,29.43
2019-04-14T08:40:27.442Z,26.10
2019-04-14T08:43:28.426Z,27.83
2019-04-14T08:46:23.571Z,33.33
2019-04-14T08:49:02.659Z,27.83
2019-04-14T08:51:37.082Z,29.17
2019-04-14T08:54:22.648Z,25.67
2019-04-14T08:57:11.507Z,27.33
2019-04-14T09:00:15.686Z,26.73
2019-04-14T09:03:00.611Z,26.40
2019-04-14T09:09:27.451Z,27.30
2019-04-14T09:12:14.931Z,26.10
2019-04-14T09:14:35.499Z,26.50
2019-04-14T09:17:05.449Z,23.00
2019-04-14T09:19:35.307Z,23.77
2019-04-14T09:22:05.092Z,24.20
2019-04-14T09:24:34.888Z,22.90
2019-04-14T09:27:04.801Z,25.17
2019-04-14T09:29:34.568Z,23.23
2019-04-14T09:32:06.174Z,25.20
2019-04-14T09:34:35.963Z,25.83
2019-04-14T09:37:05.729Z,21.67
2019-04-14T09:39:35.571Z,26.10
2019-04-14T09:42:05.448Z,23.73
2019-04-14T09:44:35.397Z,24.60
2019-04-14T09:47:05.432Z,25.60
2019-04-14T09:53:07.690Z,23.67
2019-04-14T09:55:37.498Z,22.70
2019-04-14T09:58:07.190Z,22.40
2019-04-14T10:00:39.268Z,24.57
2019-04-14T10:03:09.802Z,21.73
2019-04-14T10:05:39.576Z,23.43
2019-04-14T10:08:09.316Z,26.17
2019-04-14T10:10:39.140Z,20.93
2019-04-14T10:13:09.138Z,20.37
2019-04-14T10:15:39.014Z,30.53
2019-04-14T10:18:08.962Z,19.23
2019-04-14T10:20:38.828Z,19.20
2019-04-14T10:23:08.828Z,20.37
2019-04-14T10:25:38.664Z,20.27
2019-04-14T10:28:08.500Z,18.23
2019-04-14T10:30:38.440Z,21.70
2019-04-14T10:33:08.276Z,17.70
2019-04-14T10:35:38.064Z,18.30
2019-04-14T10:38:07.971Z,18.40
2019-04-14T10:40:37.804Z,20.10
2019-04-14T10:43:07.643Z,22.17
2019-04-14T10:45:37.576Z,18.50
2019-04-14T10:48:07.442Z,26.47
2019-04-14T10:50:37.348Z,21.67
2019-04-14T10:53:07.146Z,19.63
2019-04-14T10:55:37.023Z,21.33
2019-04-14T10:58:07.000Z,19.23
2019-04-14T11:00:37.008Z,18.23
2019-04-14T11:03:06.871Z,18.97
2019-04-14T11:05:49.919Z,23.97
2019-04-14T11:08:20.526Z,18.77
2019-04-14T11:10:50.504Z,29.67
2019-04-14T11:13:20.209Z,19.77
2019-04-14T11:15:50.223Z,19.17
2019-04-14T11:18:20.229Z,17.90
2019-04-14T11:20:50.014Z,16.70
2019-04-14T11:23:19.892Z,24.37
2019-04-14T11:25:49.799Z,21.13
2019-04-14T11:28:19.788Z,19.47
2019-04-14T11:30:50.269Z,20.73
2019-04-14T11:33:39.547Z,16.77
2019-04-14T11:36:37.382Z,19.60
2019-04-14T11:39:13.122Z,16.83
2019-04-14T11:41:43.110Z,15.83
2019-04-14T11:44:12.841Z,19.57
2019-04-14T11:46:42.637Z,15.17
2019-04-14T11:49:12.491Z,17.07
2019-04-14T11:51:54.436Z,17.50
2019-04-14T11:54:14.107Z,18.87
2019-04-14T11:56:43.999Z,20.47
2019-04-14T11:59:13.829Z,16.93
2019-04-14T12:01:53.062Z,17.50
2019-04-14T12:04:35.499Z,15.73
2019-04-14T12:07:27.079Z,16.77
2019-04-14T12:10:00.271Z,17.83
2019-04-14T12:12:30.121Z,20.47
2019-04-14T12:14:59.851Z,19.43
2019-04-14T12:17:29.628Z,17.70
2019-04-14T12:19:59.562Z,18.53
2019-04-14T12:22:29.313Z,16.10
2019-04-14T12:24:59.114Z,17.37
2019-04-14T12:27:29.087Z,17.97
2019-04-14T12:29:58.966Z,16.43
2019-04-14T12:32:30.301Z,18.60
2019-04-14T12:35:00.125Z,19.90
2019-04-14T12:37:30.031Z,19.13
2019-04-14T12:39:59.829Z,18.93
2019-04-14T12:42:49.481Z,16.53
2019-04-14T12:45:50.299Z,16.87
2019-04-14T12:48:37.981Z,19.30
2019-04-14T12:51:16.511Z,15.20
2019-04-14T12:53:46.339Z,16.60
2019-04-14T12:56:18.774Z,16.07
2019-04-14T12:59:13.589Z,15.80
2019-04-14T13:01:52.224Z,17.80
2019-04-14T13:04:22.217Z,16.03
2019-04-14T13:06:52.250Z,17.60
2019-04-14T13:09:22.142Z,19.70
2019-04-14T13:11:52.086Z,15.67
2019-04-14T13:14:21.857Z,14.57
2019-04-14T13:16:51.714Z,15.70
2019-04-14T13:19:21.641Z,15.67
2019-04-14T13:21:51.679Z,16.97
2019-04-14T13:24:21.737Z,17.30
2019-04-14T13:26:51.595Z,16.00
2019-04-14T13:29:21.380Z,15.53
2019-04-14T13:31:51.365Z,16.23
2019-04-14T13:38:03.093Z,14.90
2019-04-14T13:40:32.997Z,15.60
2019-04-14T13:43:02.857Z,17.23
2019-04-14T13:45:32.655Z,16.70
2019-04-14T13:48:02.465Z,16.00
2019-04-14T13:50:32.361Z,15.90
2019-04-14T13:53:02.157Z,18.20
2019-04-14T13:55:31.922Z,18.03
2019-04-14T13:58:01.735Z,17.43
2019-04-14T14:00:31.564Z,17.17
2019-04-14T14:03:01.303Z,16.03
2019-04-14T14:05:31.164Z,18.20
2019-04-14T14:08:01.076Z,20.43
2019-04-14T14:10:32.255Z,16.90
2019-04-14T14:13:14.936Z,15.30
2019-04-14T14:16:02.995Z,17.63
2019-04-14T14:18:51.832Z,14.47
2019-04-14T14:21:39.604Z,15.67
2019-04-14T14:24:26.984Z,15.97
2019-04-14T14:26:57.720Z,18.20
2019-04-14T14:29:27.602Z,19.37
2019-04-14T14:31:58.374Z,15.63
2019-04-14T14:34:28.128Z,15.10
2019-04-14T14:36:57.994Z,16.90
2019-04-14T14:39:27.884Z,16.50
2019-04-14T14:41:57.599Z,15.43
2019-04-14T14:44:34.250Z,15.63
2019-04-14T14:47:13.138Z,22.13
2019-04-14T14:50:04.762Z,16.43
2019-04-14T14:52:35.540Z,19.10
2019-04-14T14:55:06.784Z,17.80
2019-04-14T14:57:36.628Z,17.90
2019-04-14T15:00:20.394Z,19.57
2019-04-14T15:02:50.230Z,18.07
2019-04-14T15:05:20.184Z,20.30
2019-04-14T15:07:50.078Z,15.10
2019-04-14T15:10:37.708Z,27.60
2019-04-14T15:13:07.505Z,24.03
2019-04-14T15:15:37.337Z,19.73
2019-04-14T15:18:07.270Z,17.53
2019-04-14T15:20:37.173Z,16.07
2019-04-14T15:23:07.074Z,20.70
2019-04-14T15:25:37.067Z,20.47
2019-04-14T15:28:07.032Z,22.10
2019-04-14T15:30:37.272Z,21.27
2019-04-14T15:33:07.249Z,22.93
2019-04-14T15:35:37.624Z,22.47
2019-04-14T15:38:07.548Z,21.17
2019-04-14T15:40:37.374Z,21.97
2019-04-14T15:43:07.312Z,23.30
2019-04-14T15:45:37.345Z,22.67
2019-04-14T15:48:07.216Z,21.73
2019-04-14T15:54:09.943Z,22.23
2019-04-14T15:56:56.160Z,21.17
2019-04-14T15:59:48.623Z,19.23
2019-04-14T16:02:32.933Z,20.07
2019-04-14T16:05:24.585Z,18.70
2019-04-14T16:08:02.369Z,22.20
2019-04-14T16:10:54.423Z,22.73
2019-04-14T16:13:40.012Z,16.63
2019-04-14T16:16:31.716Z,26.97
2019-04-14T16:19:23.407Z,24.30
2019-04-14T16:21:53.460Z,18.43
2019-04-14T16:24:23.342Z,23.53
2019-04-14T16:27:07.206Z,21.27
2019-04-14T16:29:45.947Z,32.27
2019-04-14T16:32:45.223Z,17.93
2019-04-14T16:35:19.999Z,22.03
2019-04-14T16:37:50.019Z,21.10
2019-04-14T16:40:19.893Z,19.23
2019-04-14T16:42:49.792Z,22.37
2019-04-14T16:45:19.713Z,20.87
2019-04-14T16:47:49.625Z,22.93
2019-04-14T16:50:19.567Z,17.53
2019-04-14T16:52:55.099Z,20.97
2019-04-14T16:55:40.849Z,22.27
2019-04-14T16:58:32.416Z,25.00
2019-04-14T17:01:06.328Z,24.13
2019-04-14T17:03:36.481Z,22.53
2019-04-14T17:06:06.380Z,20.67
2019-04-14T17:08:36.192Z,22.73
2019-04-14T17:11:06.745Z,22.17
2019-04-14T17:13:40.687Z,19.60
2019-04-14T17:16:41.616Z,25.10
2019-04-14T17:19:26.644Z,23.53
2019-04-14T17:22:11.682Z,26.53
2019-04-14T17:25:06.435Z,25.23
2019-04-14T17:28:04.578Z,19.10
2019-04-14T17:30:39.825Z,27.20
2019-04-14T17:33:34.682Z,21.93
2019-04-14T17:40:11.872Z,23.27
2019-04-14T17:42:50.643Z,29.17
2019-04-14T17:45:38.384Z,23.57
2019-04-14T17:48:26.142Z,20.00
2019-04-14T17:51:13.737Z,22.73
2019-04-14T17:53:51.314Z,20.07
2019-04-14T17:56:43.226Z,31.93
2019-04-14T17:59:26.894Z,21.93
2019-04-14T18:02:01.858Z,25.67
2019-04-14T18:04:48.044Z,21.67
2019-04-14T18:07:22.757Z,20.80
2019-04-14T18:10:15.548Z,22.47
2019-04-14T18:12:59.151Z,16.97
2019-04-14T18:15:46.432Z,22.40
2019-04-14T18:18:31.494Z,23.43
2019-04-14T18:21:05.399Z,21.77
2019-04-14T18:23:35.314Z,19.97
2019-04-14T18:26:05.207Z,26.50
2019-04-14T18:28:49.455Z,19.77
2019-04-14T18:31:24.810Z,20.27
2019-04-14T18:34:19.893Z,19.50
2019-04-14T18:40:43.840Z,17.17
2019-04-14T18:43:51.925Z,21.77
2019-04-14T18:46:35.506Z,29.80
2019-04-14T18:49:30.334Z,24.27
2019-04-14T18:52:21.257Z,25.97
2019-04-14T18:55:00.799Z,23.17
2019-04-14T18:58:01.597Z,27.13
2019-04-14T19:00:47.545Z,28.33
2019-04-14T19:03:17.866Z,27.27
2019-04-14T19:05:48.184Z,29.10
2019-04-14T19:08:18.331Z,26.70
2019-04-14T19:11:01.506Z,33.40
2019-04-14T19:13:32.381Z,31.97
2019-04-14T19:16:12.070Z,39.70
2019-04-14T19:18:45.546Z,34.07
2019-04-14T19:28:45.421Z,25.23
2019-04-14T19:31:15.265Z,23.30
2019-04-14T19:33:44.923Z,27.97
2019-04-14T19:36:14.607Z,26.57
2019-04-14T19:38:44.317Z,27.13
2019-04-14T19:41:14.309Z,26.20
2019-04-14T19:43:44.166Z,26.60
2019-04-14T19:46:14.054Z,30.63
2019-04-14T19:48:43.778Z,29.03
2019-04-14T19:54:46.002Z,33.23
2019-04-14T19:57:15.838Z,25.37
2019-04-14T19:59:45.682Z,25.50
2019-04-14T20:02:15.615Z,27.80
2019-04-14T20:04:45.498Z,32.97
2019-04-14T20:07:15.303Z,27.80
2019-04-14T20:09:45.185Z,28.27
2019-04-14T20:12:15.572Z,32.00
2019-04-14T20:14:45.397Z,24.90
2019-04-14T20:17:32.042Z,29.13
2019-04-14T20:20:35.783Z,26.00
2019-04-14T20:23:36.980Z,21.53
2019-04-14T20:26:28.470Z,29.50
2019-04-14T20:29:06.967Z,28.47
2019-04-14T20:32:01.643Z,30.17
2019-04-14T20:34:31.443Z,25.63
2019-04-14T20:37:01.133Z,26.87
2019-04-14T20:39:31.513Z,31.13
2019-04-14T20:42:01.886Z,41.47
2019-04-14T20:44:31.667Z,29.13
2019-04-14T20:47:01.493Z,30.80
2019-04-14T20:49:31.407Z,27.30
2019-04-14T20:55:50.837Z,26.53
2019-04-14T20:58:20.557Z,24.10
2019-04-14T21:00:50.316Z,27.30
2019-04-14T21:03:37.818Z,23.23
2019-04-14T21:06:29.451Z,26.83
2019-04-14T21:09:11.688Z,21.97
2019-04-14T21:11:49.633Z,26.67
2019-04-14T21:14:35.679Z,27.10
2019-04-14T21:17:14.041Z,25.77
2019-04-14T21:19:48.917Z,28.27
2019-04-14T21:22:43.853Z,22.70
2019-04-14T21:25:18.859Z,28.47
2019-04-14T21:28:01.355Z,21.43
2019-04-14T21:30:42.312Z,21.43
2019-04-14T21:33:28.320Z,23.67
2019-04-14T21:36:10.902Z,22.27
2019-04-14T21:38:47.910Z,20.67
2019-04-14T21:41:21.357Z,22.13
2019-04-14T21:43:52.084Z,22.77
2019-04-14T21:46:25.011Z,20.47
2019-04-14T21:48:54.973Z,16.97
2019-04-14T21:55:01.805Z,17.87
2019-04-14T21:57:45.792Z,17.60
2019-04-14T22:00:34.470Z,21.27
2019-04-14T22:03:32.758Z,17.87
2019-04-14T22:06:24.314Z,16.40
2019-04-14T22:08:54.997Z,18.60
2019-04-14T22:11:26.556Z,18.57
2019-04-14T22:13:56.840Z,19.10
2019-04-14T22:16:27.422Z,19.93
2019-04-14T22:18:57.332Z,16.57
2019-04-14T22:25:09.146Z,16.47
2019-04-14T22:27:39.256Z,19.00
2019-04-14T22:30:09.663Z,18.23
2019-04-14T22:32:39.606Z,16.50
2019-04-14T22:35:09.553Z,20.63
2019-04-14T22:37:39.538Z,21.20
2019-04-14T22:40:09.759Z,18.07
2019-04-14T22:42:39.640Z,17.77
2019-04-14T22:45:09.522Z,19.37
2019-04-14T22:47:39.373Z,15.60
2019-04-14T22:50:09.728Z,13.30
2019-04-14T22:52:39.552Z,15.73
2019-04-14T22:55:09.884Z,17.73
2019-04-14T22:57:39.761Z,18.57
2019-04-14T23:00:14.003Z,18.13
2019-04-14T23:02:54.813Z,21.00
2019-04-14T23:12:19.568Z,17.47
2019-04-14T23:15:11.298Z,21.70
2019-04-14T23:17:51.153Z,18.00
2019-04-14T23:20:31.800Z,15.30
2019-04-14T23:23:12.822Z,19.07
2019-04-14T23:25:42.730Z,20.77
2019-04-14T23:28:12.640Z,16.53
2019-04-14T23:30:42.519Z,20.13
2019-04-14T23:33:12.432Z,21.63
2019-04-14T23:35:42.321Z,19.20
2019-04-14T23:38:12.309Z,18.73
2019-04-14T23:40:42.236Z,20.03
2019-04-14T23:43:12.078Z,21.37
2019-04-14T23:45:41.998Z,19.70
2019-04-14T23:48:11.954Z,20.17
2019-04-14T23:50:41.872Z,17.97
2019-04-14T23:53:11.914Z,19.80
2019-04-14T23:55:41.858Z,19.97
2019-04-14T23:58:11.910Z,24.77
